sensor_id;sensor_type;location;lat;lon;timestamp;P1;durP1;ratioP1;P2;durP2;ratioP2
665;SDS011;315;48.738;9.126;2022-11-14T00:00:58;13.70;;;12.30;;
665;SDS011;315;48.738;9.126;2022-11-14T00:03:24;16.60;;;11.50;;
665;SDS011;315;48.738;9.126;2022-11-14T00:05:49;13.03;;;10.63;;
665;SDS011;315;48.738;9.126;2022-11-14T00:08:16;15.57;;;12.27;;
665;SDS011;315;48.738;9.126;2022-11-14T00:10:44;12.67;;;10.60;;
665;SDS011;315;48.738;9.126;2022-11-14T00:13:10;15.20;;;11.13;;
665;SDS011;315;48.738;9.126;2022-11-14T00:15:36;16.53;;;12.60;;
665;SDS011;315;48.738;9.126;2022-11-14T00:18:01;16.47;;;10.67;;
665;SDS011;315;48.738;9.126;2022-11-14T00:20:27;14.03;;;11.40;;
665;SDS011;315;48.738;9.126;2022-11-14T00:22:52;15.17;;;11.57;;
665;SDS011;315;48.738;9.126;2022-11-14T00:25:18;16.23;;;13.20;;
665;SDS011;315;48.738;9.126;2022-11-14T00:27:43;15.80;;;12.07;;
665;SDS011;315;48.738;9.126;2022-11-14T00:30:09;12.83;;;10.47;;
665;SDS011;315;48.738;9.126;2022-11-14T00:32:35;17.70;;;12.70;;
665;SDS011;315;48.738;9.126;2022-11-14T00:35:00;15.93;;;11.90;;
665;SDS011;315;48.738;9.126;2022-11-14T00:37:26;19.33;;;12.63;;
665;SDS011;315;48.738;9.126;2022-11-14T00:39:51;16.33;;;12.67;;
665;SDS011;315;48.738;9.126;2022-11-14T00:42:17;17.70;;;12.57;;
665;SDS011;315;48.738;9.126;2022-11-14T00:44:42;12.93;;;11.37;;
665;SDS011;315;48.738;9.126;2022-11-14T00:47:08;15.87;;;11.70;;
665;SDS011;315;48.738;9.126;2022-11-14T00:49:33;18.67;;;13.13;;
665;SDS011;315;48.738;9.126;2022-11-14T00:51:59;14.83;;;12.27;;
665;SDS011;315;48.738;9.126;2022-11-14T00:54:25;16.10;;;11.30;;
665;SDS011;315;48.738;9.126;2022-11-14T00:56:51;15.27;;;11.90;;
665;SDS011;315;48.738;9.126;2022-11-14T00:59:16;15.50;;;12.53;;
665;SDS011;315;48.738;9.126;2022-11-14T01:01:42;16.93;;;13.10;;
665;SDS011;315;48.738;9.126;2022-11-14T01:04:07;15.27;;;11.27;;
665;SDS011;315;48.738;9.126;2022-11-14T01:06:33;17.07;;;13.33;;
665;SDS011;315;48.738;9.126;2022-11-14T01:08:59;14.97;;;12.67;;
665;SDS011;315;48.738;9.126;2022-11-14T01:11:24;15.80;;;11.93;;
665;SDS011;315;48.738;9.126;2022-11-14T01:13:50;15.73;;;12.43;;
665;SDS011;315;48.738;9.126;2022-11-14T01:16:15;18.30;;;12.20;;
665;SDS011;315;48.738;9.126;2022-11-14T01:18:41;16.83;;;12.57;;
665;SDS011;315;48.738;9.126;2022-11-14T01:21:08;18.27;;;13.10;;
665;SDS011;315;48.738;9.126;2022-11-14T01:23:35;16.93;;;12.70;;
665;SDS011;315;48.738;9.126;2022-11-14T01:26:05;19.97;;;13.33;;
665;SDS011;315;48.738;9.126;2022-11-14T01:28:32;13.50;;;11.03;;
665;SDS011;315;48.738;9.126;2022-11-14T01:31:20;15.20;;;12.37;;
665;SDS011;315;48.738;9.126;2022-11-14T01:33:48;13.63;;;11.40;;
665;SDS011;315;48.738;9.126;2022-11-14T01:36:14;18.00;;;11.67;;
665;SDS011;315;48.738;9.126;2022-11-14T01:38:40;13.90;;;12.10;;
665;SDS011;315;48.738;9.126;2022-11-14T01:41:06;14.47;;;11.70;;
665;SDS011;315;48.738;9.126;2022-11-14T01:43:35;15.50;;;11.70;;
665;SDS011;315;48.738;9.126;2022-11-14T01:46:05;15.43;;;13.30;;
665;SDS011;315;48.738;9.126;2022-11-14T01:51:43;12.73;;;11.43;;
665;SDS011;315;48.738;9.126;2022-11-14T01:54:18;12.10;;;10.00;;
665;SDS011;315;48.738;9.126;2022-11-14T01:56:52;15.83;;;13.17;;
665;SDS011;315;48.738;9.126;2022-11-14T01:59:22;16.50;;;11.97;;
665;SDS011;315;48.738;9.126;2022-11-14T02:01:51;14.80;;;11.50;;
665;SDS011;315;48.738;9.126;2022-11-14T02:04:26;13.13;;;11.60;;
665;SDS011;315;48.738;9.126;2022-11-14T02:06:57;13.03;;;10.80;;
665;SDS011;315;48.738;9.126;2022-11-14T02:09:25;13.50;;;10.47;;
665;SDS011;315;48.738;9.126;2022-11-14T02:11:54;13.90;;;11.47;;
665;SDS011;315;48.738;9.126;2022-11-14T02:14:22;13.63;;;11.07;;
665;SDS011;315;48.738;9.126;2022-11-14T02:16:48;16.57;;;12.13;;
665;SDS011;315;48.738;9.126;2022-11-14T02:19:14;13.80;;;10.50;;
665;SDS011;315;48.738;9.126;2022-11-14T02:21:41;16.30;;;11.40;;
665;SDS011;315;48.738;9.126;2022-11-14T02:24:09;18.73;;;13.30;;
665;SDS011;315;48.738;9.126;2022-11-14T02:26:36;19.20;;;12.97;;
665;SDS011;315;48.738;9.126;2022-11-14T02:29:03;19.63;;;13.00;;
665;SDS011;315;48.738;9.126;2022-11-14T02:31:31;23.93;;;15.83;;
665;SDS011;315;48.738;9.126;2022-11-14T02:33:56;18.53;;;14.40;;
665;SDS011;315;48.738;9.126;2022-11-14T02:36:22;30.30;;;15.27;;
665;SDS011;315;48.738;9.126;2022-11-14T02:38:48;33.87;;;16.03;;
665;SDS011;315;48.738;9.126;2022-11-14T02:41:13;35.93;;;16.67;;
665;SDS011;315;48.738;9.126;2022-11-14T02:43:38;79.47;;;21.60;;
665;SDS011;315;48.738;9.126;2022-11-14T02:46:04;38.77;;;16.00;;
665;SDS011;315;48.738;9.126;2022-11-14T02:48:29;48.20;;;17.33;;
665;SDS011;315;48.738;9.126;2022-11-14T02:50:55;50.33;;;16.47;;
665;SDS011;315;48.738;9.126;2022-11-14T02:53:20;50.73;;;14.93;;
665;SDS011;315;48.738;9.126;2022-11-14T02:55:46;40.30;;;15.50;;
665;SDS011;315;48.738;9.126;2022-11-14T02:58:11;29.27;;;14.50;;
665;SDS011;315;48.738;9.126;2022-11-14T03:00:37;29.60;;;15.40;;
665;SDS011;315;48.738;9.126;2022-11-14T03:03:03;30.17;;;15.70;;
665;SDS011;315;48.738;9.126;2022-11-14T03:05:28;39.07;;;14.93;;
665;SDS011;315;48.738;9.126;2022-11-14T03:07:54;58.93;;;16.67;;
665;SDS011;315;48.738;9.126;2022-11-14T03:10:21;30.93;;;15.13;;
665;SDS011;315;48.738;9.126;2022-11-14T03:12:47;25.60;;;15.80;;
665;SDS011;315;48.738;9.126;2022-11-14T03:15:16;28.30;;;14.23;;
665;SDS011;315;48.738;9.126;2022-11-14T03:17:42;30.40;;;13.50;;
665;SDS011;315;48.738;9.126;2022-11-14T03:20:08;25.13;;;14.00;;
665;SDS011;315;48.738;9.126;2022-11-14T03:22:33;20.47;;;15.00;;
665;SDS011;315;48.738;9.126;2022-11-14T03:24:59;24.57;;;15.03;;
665;SDS011;315;48.738;9.126;2022-11-14T03:27:25;20.60;;;13.13;;
665;SDS011;315;48.738;9.126;2022-11-14T03:29:51;23.40;;;14.23;;
665;SDS011;315;48.738;9.126;2022-11-14T03:32:16;20.17;;;13.73;;
665;SDS011;315;48.738;9.126;2022-11-14T03:34:42;19.90;;;14.43;;
665;SDS011;315;48.738;9.126;2022-11-14T03:37:08;17.23;;;13.00;;
665;SDS011;315;48.738;9.126;2022-11-14T03:39:33;13.70;;;10.77;;
665;SDS011;315;48.738;9.126;2022-11-14T03:41:59;14.80;;;12.37;;
665;SDS011;315;48.738;9.126;2022-11-14T03:44:25;13.90;;;10.53;;
665;SDS011;315;48.738;9.126;2022-11-14T03:46:50;15.40;;;11.13;;
665;SDS011;315;48.738;9.126;2022-11-14T03:49:16;16.43;;;12.50;;
665;SDS011;315;48.738;9.126;2022-11-14T03:51:42;13.37;;;10.83;;
665;SDS011;315;48.738;9.126;2022-11-14T03:54:08;16.93;;;10.93;;
665;SDS011;315;48.738;9.126;2022-11-14T03:56:33;15.10;;;12.37;;
665;SDS011;315;48.738;9.126;2022-11-14T03:58:59;12.43;;;11.13;;
665;SDS011;315;48.738;9.126;2022-11-14T04:01:24;15.27;;;10.70;;
665;SDS011;315;48.738;9.126;2022-11-14T04:03:51;10.60;;;9.40;;
665;SDS011;315;48.738;9.126;2022-11-14T04:06:17;12.10;;;9.80;;
665;SDS011;315;48.738;9.126;2022-11-14T04:08:42;12.17;;;9.67;;
665;SDS011;315;48.738;9.126;2022-11-14T04:11:08;15.90;;;10.97;;
665;SDS011;315;48.738;9.126;2022-11-14T04:13:33;12.77;;;9.70;;
665;SDS011;315;48.738;9.126;2022-11-14T04:15:59;13.27;;;10.53;;
665;SDS011;315;48.738;9.126;2022-11-14T04:18:25;13.47;;;10.67;;
665;SDS011;315;48.738;9.126;2022-11-14T04:20:51;12.13;;;9.87;;
665;SDS011;315;48.738;9.126;2022-11-14T04:23:17;12.23;;;9.67;;
665;SDS011;315;48.738;9.126;2022-11-14T04:25:43;18.10;;;11.93;;
665;SDS011;315;48.738;9.126;2022-11-14T04:28:09;14.23;;;10.50;;
665;SDS011;315;48.738;9.126;2022-11-14T04:30:35;13.20;;;10.43;;
665;SDS011;315;48.738;9.126;2022-11-14T04:33:01;14.23;;;10.80;;
665;SDS011;315;48.738;9.126;2022-11-14T04:35:27;15.17;;;11.70;;
665;SDS011;315;48.738;9.126;2022-11-14T04:37:52;13.30;;;11.30;;
665;SDS011;315;48.738;9.126;2022-11-14T04:40:18;13.60;;;10.57;;
665;SDS011;315;48.738;9.126;2022-11-14T04:42:43;13.13;;;10.20;;
665;SDS011;315;48.738;9.126;2022-11-14T04:45:09;14.60;;;10.83;;
665;SDS011;315;48.738;9.126;2022-11-14T04:47:35;12.83;;;11.53;;
665;SDS011;315;48.738;9.126;2022-11-14T04:50:01;14.40;;;11.00;;
665;SDS011;315;48.738;9.126;2022-11-14T04:52:26;15.47;;;12.03;;
665;SDS011;315;48.738;9.126;2022-11-14T04:54:52;12.13;;;10.60;;
665;SDS011;315;48.738;9.126;2022-11-14T04:57:18;13.00;;;10.00;;
665;SDS011;315;48.738;9.126;2022-11-14T04:59:43;14.90;;;11.33;;
665;SDS011;315;48.738;9.126;2022-11-14T05:02:09;11.80;;;10.57;;
665;SDS011;315;48.738;9.126;2022-11-14T05:04:34;12.03;;;10.47;;
665;SDS011;315;48.738;9.126;2022-11-14T05:07:00;11.60;;;9.50;;
665;SDS011;315;48.738;9.126;2022-11-14T05:09:25;16.50;;;12.00;;
665;SDS011;315;48.738;9.126;2022-11-14T05:11:51;15.90;;;11.27;;
665;SDS011;315;48.738;9.126;2022-11-14T05:14:16;12.63;;;10.90;;
665;SDS011;315;48.738;9.126;2022-11-14T05:16:42;12.80;;;9.57;;
665;SDS011;315;48.738;9.126;2022-11-14T05:19:08;11.90;;;9.77;;
665;SDS011;315;48.738;9.126;2022-11-14T05:21:33;11.60;;;10.40;;
665;SDS011;315;48.738;9.126;2022-11-14T05:23:59;10.53;;;9.27;;
665;SDS011;315;48.738;9.126;2022-11-14T05:26:24;11.87;;;10.53;;
665;SDS011;315;48.738;9.126;2022-11-14T05:28:50;11.23;;;9.10;;
665;SDS011;315;48.738;9.126;2022-11-14T05:31:15;12.80;;;10.67;;
665;SDS011;315;48.738;9.126;2022-11-14T05:33:41;14.47;;;10.37;;
665;SDS011;315;48.738;9.126;2022-11-14T05:36:08;16.20;;;11.00;;
665;SDS011;315;48.738;9.126;2022-11-14T05:38:36;10.80;;;8.97;;
665;SDS011;315;48.738;9.126;2022-11-14T05:41:09;11.63;;;9.90;;
665;SDS011;315;48.738;9.126;2022-11-14T05:43:36;12.60;;;9.57;;
665;SDS011;315;48.738;9.126;2022-11-14T05:46:02;13.70;;;9.90;;
665;SDS011;315;48.738;9.126;2022-11-14T05:48:30;12.57;;;9.80;;
665;SDS011;315;48.738;9.126;2022-11-14T05:50:56;13.90;;;9.67;;
665;SDS011;315;48.738;9.126;2022-11-14T05:53:23;12.87;;;11.00;;
665;SDS011;315;48.738;9.126;2022-11-14T05:55:50;12.87;;;9.87;;
665;SDS011;315;48.738;9.126;2022-11-14T05:58:16;10.57;;;8.80;;
665;SDS011;315;48.738;9.126;2022-11-14T06:00:41;13.67;;;10.47;;
665;SDS011;315;48.738;9.126;2022-11-14T06:03:07;11.40;;;9.60;;
665;SDS011;315;48.738;9.126;2022-11-14T06:05:33;9.83;;;8.80;;
665;SDS011;315;48.738;9.126;2022-11-14T06:08:00;11.13;;;9.97;;
665;SDS011;315;48.738;9.126;2022-11-14T06:10:26;10.80;;;8.90;;
665;SDS011;315;48.738;9.126;2022-11-14T06:12:51;12.10;;;10.20;;
665;SDS011;315;48.738;9.126;2022-11-14T06:15:17;11.60;;;9.40;;
665;SDS011;315;48.738;9.126;2022-11-14T06:17:43;11.00;;;9.20;;
665;SDS011;315;48.738;9.126;2022-11-14T06:20:08;15.73;;;9.90;;
665;SDS011;315;48.738;9.126;2022-11-14T06:22:34;11.07;;;9.10;;
665;SDS011;315;48.738;9.126;2022-11-14T06:25:00;12.20;;;9.70;;
665;SDS011;315;48.738;9.126;2022-11-14T06:27:26;10.77;;;9.10;;
665;SDS011;315;48.738;9.126;2022-11-14T06:29:52;17.03;;;10.07;;
665;SDS011;315;48.738;9.126;2022-11-14T06:32:17;13.43;;;11.03;;
665;SDS011;315;48.738;9.126;2022-11-14T06:34:43;13.63;;;9.47;;
665;SDS011;315;48.738;9.126;2022-11-14T06:37:08;11.90;;;9.23;;
665;SDS011;315;48.738;9.126;2022-11-14T06:39:34;9.40;;;8.40;;
665;SDS011;315;48.738;9.126;2022-11-14T06:41:59;13.07;;;8.93;;
665;SDS011;315;48.738;9.126;2022-11-14T06:44:25;13.23;;;10.17;;
665;SDS011;315;48.738;9.126;2022-11-14T06:46:50;13.50;;;9.87;;
665;SDS011;315;48.738;9.126;2022-11-14T06:49:16;11.73;;;9.37;;
665;SDS011;315;48.738;9.126;2022-11-14T06:51:41;12.40;;;8.00;;
665;SDS011;315;48.738;9.126;2022-11-14T06:54:09;11.40;;;9.27;;
665;SDS011;315;48.738;9.126;2022-11-14T06:56:35;11.20;;;9.00;;
665;SDS011;315;48.738;9.126;2022-11-14T06:59:01;10.93;;;9.83;;
665;SDS011;315;48.738;9.126;2022-11-14T07:01:27;11.40;;;8.93;;
665;SDS011;315;48.738;9.126;2022-11-14T07:03:53;12.10;;;9.70;;
665;SDS011;315;48.738;9.126;2022-11-14T07:06:20;11.07;;;8.60;;
665;SDS011;315;48.738;9.126;2022-11-14T07:08:47;11.17;;;8.90;;
665;SDS011;315;48.738;9.126;2022-11-14T07:11:13;12.30;;;9.20;;
665;SDS011;315;48.738;9.126;2022-11-14T07:13:47;10.80;;;8.30;;
665;SDS011;315;48.738;9.126;2022-11-14T07:16:13;11.37;;;8.17;;
665;SDS011;315;48.738;9.126;2022-11-14T07:18:39;14.33;;;8.70;;
665;SDS011;315;48.738;9.126;2022-11-14T07:21:04;10.90;;;8.70;;
665;SDS011;315;48.738;9.126;2022-11-14T07:23:30;11.30;;;9.87;;
665;SDS011;315;48.738;9.126;2022-11-14T07:26:03;10.53;;;8.83;;
665;SDS011;315;48.738;9.126;2022-11-14T07:28:31;9.83;;;8.03;;
665;SDS011;315;48.738;9.126;2022-11-14T07:30:58;11.23;;;8.87;;
665;SDS011;315;48.738;9.126;2022-11-14T07:33:26;11.27;;;9.00;;
665;SDS011;315;48.738;9.126;2022-11-14T07:35:52;12.50;;;8.80;;
665;SDS011;315;48.738;9.126;2022-11-14T07:38:17;11.03;;;8.50;;
665;SDS011;315;48.738;9.126;2022-11-14T07:40:51;16.53;;;11.23;;
665;SDS011;315;48.738;9.126;2022-11-14T07:43:20;13.90;;;9.73;;
665;SDS011;315;48.738;9.126;2022-11-14T07:45:46;11.47;;;10.20;;
665;SDS011;315;48.738;9.126;2022-11-14T07:48:11;12.00;;;10.03;;
665;SDS011;315;48.738;9.126;2022-11-14T07:50:37;12.90;;;8.87;;
665;SDS011;315;48.738;9.126;2022-11-14T07:53:02;12.00;;;9.97;;
665;SDS011;315;48.738;9.126;2022-11-14T07:55:28;10.27;;;9.07;;
665;SDS011;315;48.738;9.126;2022-11-14T07:57:53;14.27;;;10.80;;
665;SDS011;315;48.738;9.126;2022-11-14T08:00:22;15.43;;;8.50;;
665;SDS011;315;48.738;9.126;2022-11-14T08:02:48;11.27;;;9.00;;
665;SDS011;315;48.738;9.126;2022-11-14T08:05:13;14.10;;;9.77;;
665;SDS011;315;48.738;9.126;2022-11-14T08:07:39;13.43;;;11.00;;
665;SDS011;315;48.738;9.126;2022-11-14T08:10:05;10.83;;;8.50;;
665;SDS011;315;48.738;9.126;2022-11-14T08:12:31;11.07;;;9.93;;
665;SDS011;315;48.738;9.126;2022-11-14T08:14:56;11.90;;;8.23;;
665;SDS011;315;48.738;9.126;2022-11-14T08:17:22;10.13;;;8.07;;
665;SDS011;315;48.738;9.126;2022-11-14T08:19:48;11.03;;;7.93;;
665;SDS011;315;48.738;9.126;2022-11-14T08:22:13;11.00;;;8.20;;
665;SDS011;315;48.738;9.126;2022-11-14T08:24:39;8.70;;;7.10;;
665;SDS011;315;48.738;9.126;2022-11-14T08:27:04;10.93;;;8.37;;
665;SDS011;315;48.738;9.126;2022-11-14T08:29:30;11.80;;;9.23;;
665;SDS011;315;48.738;9.126;2022-11-14T08:31:56;7.93;;;5.73;;
665;SDS011;315;48.738;9.126;2022-11-14T08:34:21;7.33;;;6.57;;
665;SDS011;315;48.738;9.126;2022-11-14T08:36:47;8.70;;;4.93;;
665;SDS011;315;48.738;9.126;2022-11-14T08:39:13;8.33;;;6.30;;
665;SDS011;315;48.738;9.126;2022-11-14T08:41:39;9.10;;;6.17;;
665;SDS011;315;48.738;9.126;2022-11-14T08:44:04;5.70;;;4.20;;
665;SDS011;315;48.738;9.126;2022-11-14T08:46:30;7.83;;;5.10;;
665;SDS011;315;48.738;9.126;2022-11-14T08:48:55;4.87;;;4.10;;
665;SDS011;315;48.738;9.126;2022-11-14T08:51:21;5.20;;;4.57;;
665;SDS011;315;48.738;9.126;2022-11-14T08:53:46;5.80;;;5.20;;
665;SDS011;315;48.738;9.126;2022-11-14T08:56:12;5.07;;;4.57;;
665;SDS011;315;48.738;9.126;2022-11-14T08:58:37;5.07;;;4.57;;
665;SDS011;315;48.738;9.126;2022-11-14T09:01:04;5.63;;;5.03;;
665;SDS011;315;48.738;9.126;2022-11-14T09:03:31;4.83;;;4.33;;
665;SDS011;315;48.738;9.126;2022-11-14T09:05:57;6.63;;;5.70;;
665;SDS011;315;48.738;9.126;2022-11-14T09:08:23;4.80;;;4.30;;
665;SDS011;315;48.738;9.126;2022-11-14T09:10:49;5.13;;;4.30;;
665;SDS011;315;48.738;9.126;2022-11-14T09:13:15;5.50;;;4.00;;
665;SDS011;315;48.738;9.126;2022-11-14T09:15:42;5.73;;;3.93;;
665;SDS011;315;48.738;9.126;2022-11-14T09:18:08;5.53;;;4.90;;
665;SDS011;315;48.738;9.126;2022-11-14T09:20:35;4.23;;;3.63;;
665;SDS011;315;48.738;9.126;2022-11-14T09:23:00;4.80;;;4.40;;
665;SDS011;315;48.738;9.126;2022-11-14T09:25:27;4.43;;;4.03;;
665;SDS011;315;48.738;9.126;2022-11-14T09:27:53;4.30;;;3.50;;
665;SDS011;315;48.738;9.126;2022-11-14T09:30:20;4.60;;;4.10;;
665;SDS011;315;48.738;9.126;2022-11-14T09:32:49;4.23;;;3.83;;
665;SDS011;315;48.738;9.126;2022-11-14T09:35:15;4.60;;;3.70;;
665;SDS011;315;48.738;9.126;2022-11-14T09:37:40;4.73;;;4.13;;
665;SDS011;315;48.738;9.126;2022-11-14T09:40:06;4.00;;;3.43;;
665;SDS011;315;48.738;9.126;2022-11-14T09:42:36;3.57;;;3.27;;
665;SDS011;315;48.738;9.126;2022-11-14T09:45:18;3.30;;;3.10;;
665;SDS011;315;48.738;9.126;2022-11-14T09:52:41;4.07;;;3.67;;
665;SDS011;315;48.738;9.126;2022-11-14T09:55:12;5.57;;;3.83;;
665;SDS011;315;48.738;9.126;2022-11-14T09:57:42;4.40;;;3.57;;
665;SDS011;315;48.738;9.126;2022-11-14T10:00:17;6.43;;;5.00;;
665;SDS011;315;48.738;9.126;2022-11-14T10:10:37;4.60;;;4.07;;
665;SDS011;315;48.738;9.126;2022-11-14T10:16:00;4.00;;;3.40;;
665;SDS011;315;48.738;9.126;2022-11-14T10:21:21;3.43;;;3.03;;
665;SDS011;315;48.738;9.126;2022-11-14T10:24:04;4.60;;;3.03;;
665;SDS011;315;48.738;9.126;2022-11-14T10:26:46;2.80;;;2.60;;
665;SDS011;315;48.738;9.126;2022-11-14T10:35:03;3.57;;;3.23;;
665;SDS011;315;48.738;9.126;2022-11-14T10:37:48;3.70;;;3.40;;
665;SDS011;315;48.738;9.126;2022-11-14T10:40:20;2.97;;;2.77;;
665;SDS011;315;48.738;9.126;2022-11-14T10:43:00;5.20;;;3.17;;
665;SDS011;315;48.738;9.126;2022-11-14T10:45:37;3.33;;;3.03;;
665;SDS011;315;48.738;9.126;2022-11-14T10:48:14;3.93;;;3.20;;
665;SDS011;315;48.738;9.126;2022-11-14T10:51:09;3.33;;;2.73;;
665;SDS011;315;48.738;9.126;2022-11-14T10:56:34;4.27;;;3.23;;
665;SDS011;315;48.738;9.126;2022-11-14T10:59:09;3.20;;;2.63;;
665;SDS011;315;48.738;9.126;2022-11-14T11:06:45;4.03;;;2.63;;
665;SDS011;315;48.738;9.126;2022-11-14T11:09:22;2.43;;;2.23;;
665;SDS011;315;48.738;9.126;2022-11-14T11:12:14;2.20;;;2.10;;
665;SDS011;315;48.738;9.126;2022-11-14T11:14:46;2.70;;;2.50;;
665;SDS011;315;48.738;9.126;2022-11-14T11:19:40;2.57;;;2.37;;
665;SDS011;315;48.738;9.126;2022-11-14T11:22:29;2.77;;;2.57;;
665;SDS011;315;48.738;9.126;2022-11-14T11:24:54;3.20;;;2.90;;
665;SDS011;315;48.738;9.126;2022-11-14T11:30:00;2.73;;;2.53;;
665;SDS011;315;48.738;9.126;2022-11-14T11:32:29;3.20;;;2.90;;
665;SDS011;315;48.738;9.126;2022-11-14T11:34:56;2.60;;;2.40;;
665;SDS011;315;48.738;9.126;2022-11-14T11:37:25;2.50;;;2.30;;
665;SDS011;315;48.738;9.126;2022-11-14T11:39:55;3.13;;;2.93;;
665;SDS011;315;48.738;9.126;2022-11-14T11:42:27;3.33;;;3.03;;
665;SDS011;315;48.738;9.126;2022-11-14T11:44:56;3.10;;;2.33;;
665;SDS011;315;48.738;9.126;2022-11-14T11:47:24;2.03;;;1.90;;
665;SDS011;315;48.738;9.126;2022-11-14T11:49:53;2.03;;;1.83;;
665;SDS011;315;48.738;9.126;2022-11-14T11:52:23;2.53;;;2.30;;
665;SDS011;315;48.738;9.126;2022-11-14T11:55:10;2.27;;;2.07;;
665;SDS011;315;48.738;9.126;2022-11-14T11:57:41;2.80;;;2.60;;
665;SDS011;315;48.738;9.126;2022-11-14T12:00:15;2.40;;;2.20;;
665;SDS011;315;48.738;9.126;2022-11-14T12:02:45;2.80;;;2.60;;
665;SDS011;315;48.738;9.126;2022-11-14T12:05:14;1.97;;;1.80;;
665;SDS011;315;48.738;9.126;2022-11-14T12:08:03;2.60;;;2.37;;
665;SDS011;315;48.738;9.126;2022-11-14T12:10:41;3.03;;;2.13;;
665;SDS011;315;48.738;9.126;2022-11-14T12:13:18;2.60;;;2.27;;
665;SDS011;315;48.738;9.126;2022-11-14T12:16:08;2.60;;;2.40;;
665;SDS011;315;48.738;9.126;2022-11-14T12:24:57;2.47;;;2.13;;
665;SDS011;315;48.738;9.126;2022-11-14T12:28:05;2.27;;;2.00;;
665;SDS011;315;48.738;9.126;2022-11-14T12:30:35;3.53;;;2.03;;
665;SDS011;315;48.738;9.126;2022-11-14T12:33:11;3.20;;;2.23;;
665;SDS011;315;48.738;9.126;2022-11-14T12:35:57;3.30;;;2.67;;
665;SDS011;315;48.738;9.126;2022-11-14T12:38:25;3.37;;;3.07;;
665;SDS011;315;48.738;9.126;2022-11-14T12:40:57;2.83;;;2.60;;
665;SDS011;315;48.738;9.126;2022-11-14T12:50:50;2.50;;;2.30;;
665;SDS011;315;48.738;9.126;2022-11-14T13:04:22;4.03;;;3.53;;
665;SDS011;315;48.738;9.126;2022-11-14T13:12:34;2.90;;;2.43;;
665;SDS011;315;48.738;9.126;2022-11-14T13:15:29;2.60;;;2.10;;
665;SDS011;315;48.738;9.126;2022-11-14T13:18:21;3.60;;;3.03;;
665;SDS011;315;48.738;9.126;2022-11-14T13:24:08;6.33;;;2.67;;
665;SDS011;315;48.738;9.126;2022-11-14T13:26:53;2.43;;;2.23;;
665;SDS011;315;48.738;9.126;2022-11-14T13:32:08;2.83;;;2.63;;
665;SDS011;315;48.738;9.126;2022-11-14T13:34:49;2.50;;;2.30;;
665;SDS011;315;48.738;9.126;2022-11-14T13:43:01;6.27;;;3.43;;
665;SDS011;315;48.738;9.126;2022-11-14T13:45:46;3.53;;;2.33;;
665;SDS011;315;48.738;9.126;2022-11-14T13:51:22;2.87;;;2.67;;
665;SDS011;315;48.738;9.126;2022-11-14T13:53:50;3.00;;;2.70;;
665;SDS011;315;48.738;9.126;2022-11-14T13:59:16;7.40;;;2.50;;
665;SDS011;315;48.738;9.126;2022-11-14T14:04:43;8.77;;;6.20;;
665;SDS011;315;48.738;9.126;2022-11-14T14:12:45;3.30;;;2.37;;
665;SDS011;315;48.738;9.126;2022-11-14T14:15:35;2.80;;;2.57;;
665;SDS011;315;48.738;9.126;2022-11-14T14:18:24;3.17;;;2.70;;
665;SDS011;315;48.738;9.126;2022-11-14T14:21:04;2.83;;;2.53;;
665;SDS011;315;48.738;9.126;2022-11-14T14:29:08;3.23;;;3.03;;
665;SDS011;315;48.738;9.126;2022-11-14T14:31:46;3.87;;;2.80;;
665;SDS011;315;48.738;9.126;2022-11-14T14:34:28;6.57;;;3.30;;
665;SDS011;315;48.738;9.126;2022-11-14T14:36:55;3.77;;;2.77;;
665;SDS011;315;48.738;9.126;2022-11-14T14:39:25;2.70;;;2.50;;
665;SDS011;315;48.738;9.126;2022-11-14T14:41:56;3.10;;;2.83;;
665;SDS011;315;48.738;9.126;2022-11-14T14:44:24;3.70;;;3.07;;
665;SDS011;315;48.738;9.126;2022-11-14T14:46:51;3.00;;;2.73;;
665;SDS011;315;48.738;9.126;2022-11-14T14:49:25;3.90;;;2.60;;
665;SDS011;315;48.738;9.126;2022-11-14T14:51:54;3.33;;;2.90;;
665;SDS011;315;48.738;9.126;2022-11-14T14:54:23;2.90;;;2.60;;
665;SDS011;315;48.738;9.126;2022-11-14T14:56:54;3.47;;;3.17;;
665;SDS011;315;48.738;9.126;2022-11-14T14:59:26;4.03;;;3.40;;
665;SDS011;315;48.738;9.126;2022-11-14T15:01:54;6.13;;;3.40;;
665;SDS011;315;48.738;9.126;2022-11-14T15:04:22;4.43;;;4.03;;
665;SDS011;315;48.738;9.126;2022-11-14T15:06:50;5.20;;;3.27;;
665;SDS011;315;48.738;9.126;2022-11-14T15:09:18;7.90;;;6.37;;
665;SDS011;315;48.738;9.126;2022-11-14T15:11:56;3.50;;;3.17;;
665;SDS011;315;48.738;9.126;2022-11-14T15:14:28;4.00;;;3.63;;
665;SDS011;315;48.738;9.126;2022-11-14T15:16:59;4.47;;;3.20;;
665;SDS011;315;48.738;9.126;2022-11-14T15:19:29;4.00;;;3.43;;
665;SDS011;315;48.738;9.126;2022-11-14T15:22:25;4.20;;;3.10;;
665;SDS011;315;48.738;9.126;2022-11-14T15:27:49;4.20;;;3.67;;
665;SDS011;315;48.738;9.126;2022-11-14T15:30:24;7.27;;;3.73;;
665;SDS011;315;48.738;9.126;2022-11-14T15:32:59;4.40;;;3.30;;
665;SDS011;315;48.738;9.126;2022-11-14T15:35:27;3.53;;;3.20;;
665;SDS011;315;48.738;9.126;2022-11-14T15:38:04;6.03;;;3.63;;
665;SDS011;315;48.738;9.126;2022-11-14T15:40:37;5.37;;;4.03;;
665;SDS011;315;48.738;9.126;2022-11-14T15:46:34;7.57;;;3.50;;
665;SDS011;315;48.738;9.126;2022-11-14T15:48:53;13.10;;;7.10;;
665;SDS011;315;48.738;9.126;2022-11-14T15:51:36;5.57;;;3.50;;
665;SDS011;315;48.738;9.126;2022-11-14T15:54:31;4.30;;;3.53;;
665;SDS011;315;48.738;9.126;2022-11-14T15:56:59;4.63;;;3.37;;
665;SDS011;315;48.738;9.126;2022-11-14T15:59:28;6.23;;;4.43;;
665;SDS011;315;48.738;9.126;2022-11-14T16:02:01;3.93;;;3.50;;
665;SDS011;315;48.738;9.126;2022-11-14T16:04:40;4.00;;;3.70;;
665;SDS011;315;48.738;9.126;2022-11-14T16:07:08;5.30;;;3.97;;
665;SDS011;315;48.738;9.126;2022-11-14T16:09:37;5.03;;;3.83;;
665;SDS011;315;48.738;9.126;2022-11-14T16:12:03;3.83;;;3.53;;
665;SDS011;315;48.738;9.126;2022-11-14T16:14:29;4.53;;;4.10;;
665;SDS011;315;48.738;9.126;2022-11-14T16:16:55;4.17;;;3.87;;
665;SDS011;315;48.738;9.126;2022-11-14T16:19:20;4.73;;;3.60;;
665;SDS011;315;48.738;9.126;2022-11-14T16:21:46;4.10;;;3.47;;
665;SDS011;315;48.738;9.126;2022-11-14T16:24:13;5.00;;;3.50;;
665;SDS011;315;48.738;9.126;2022-11-14T16:26:40;5.47;;;3.93;;
665;SDS011;315;48.738;9.126;2022-11-14T16:29:06;3.60;;;3.30;;
665;SDS011;315;48.738;9.126;2022-11-14T16:31:32;4.70;;;3.97;;
665;SDS011;315;48.738;9.126;2022-11-14T16:33:57;3.50;;;3.20;;
665;SDS011;315;48.738;9.126;2022-11-14T16:36:23;4.53;;;4.03;;
665;SDS011;315;48.738;9.126;2022-11-14T16:38:49;4.50;;;3.60;;
665;SDS011;315;48.738;9.126;2022-11-14T16:41:15;5.10;;;3.77;;
665;SDS011;315;48.738;9.126;2022-11-14T16:43:41;3.60;;;3.30;;
665;SDS011;315;48.738;9.126;2022-11-14T16:46:08;4.90;;;3.60;;
665;SDS011;315;48.738;9.126;2022-11-14T16:48:35;10.77;;;3.83;;
665;SDS011;315;48.738;9.126;2022-11-14T16:51:01;5.67;;;3.70;;
665;SDS011;315;48.738;9.126;2022-11-14T16:53:28;5.77;;;4.13;;
665;SDS011;315;48.738;9.126;2022-11-14T16:55:54;4.80;;;4.27;;
665;SDS011;315;48.738;9.126;2022-11-14T16:58:20;3.93;;;3.63;;
665;SDS011;315;48.738;9.126;2022-11-14T17:00:46;9.83;;;7.33;;
665;SDS011;315;48.738;9.126;2022-11-14T17:03:11;5.90;;;3.97;;
665;SDS011;315;48.738;9.126;2022-11-14T17:06:10;5.03;;;4.40;;
665;SDS011;315;48.738;9.126;2022-11-14T17:08:31;6.00;;;5.20;;
665;SDS011;315;48.738;9.126;2022-11-14T17:10:56;12.80;;;9.90;;
665;SDS011;315;48.738;9.126;2022-11-14T17:13:23;7.83;;;5.67;;
665;SDS011;315;48.738;9.126;2022-11-14T17:15:49;5.60;;;5.10;;
665;SDS011;315;48.738;9.126;2022-11-14T17:18:15;9.40;;;4.63;;
665;SDS011;315;48.738;9.126;2022-11-14T17:20:41;7.40;;;5.10;;
665;SDS011;315;48.738;9.126;2022-11-14T17:23:07;9.90;;;5.20;;
665;SDS011;315;48.738;9.126;2022-11-14T17:25:33;5.37;;;4.23;;
665;SDS011;315;48.738;9.126;2022-11-14T17:27:58;6.40;;;4.73;;
665;SDS011;315;48.738;9.126;2022-11-14T17:30:24;5.40;;;4.90;;